This is the latest recevied weather packets stored in our database for station/object SA3PJN-WX. If no packets are shown the sender has not sent any weather packets the latest 10 day(s).
| Time | Temp. | Humidity | Pressure | Rain* | Wind** | Luminosity | Snow |
|---|---|---|---|---|---|---|---|
| 1778334504 | 12.78° C | 46% | 973.3 hPa | - | - | - | - |
| 1778334204 | 12.22° C | 48% | 973.4 hPa | - | - | - | - |
| 1778333874 | 12.22° C | 47% | 973.3 hPa | - | - | - | - |
| 1778333574 | 12.22° C | 48% | 973.7 hPa | - | - | - | - |
| 1778333244 | 12.22° C | 48% | 973.7 hPa | - | - | - | - |
| 1778332944 | 12.22° C | 47% | 973.6 hPa | - | - | - | - |
| 1778332644 | 12.22° C | 48% | 973.7 hPa | - | - | - | - |
| 1778332314 | 12.22° C | 48% | 973.8 hPa | - | - | - | - |
| 1778332014 | 12.22° C | 47% | 973.9 hPa | - | - | - | - |
| 1778331714 | 12.22° C | 47% | 973.9 hPa | - | - | - | - |
| 1778331384 | 12.22° C | 46% | 974 hPa | - | - | - | - |
| 1778331084 | 12.78° C | 47% | 974 hPa | - | - | - | - |
| 1778330784 | 12.78° C | 48% | 974.1 hPa | - | - | - | - |
| 1778330454 | 12.78° C | 47% | 974.1 hPa | - | - | - | - |
| 1778330154 | 12.78° C | 47% | 974.1 hPa | - | - | - | - |
| 1778329854 | 12.78° C | 45% | 974 hPa | - | - | - | - |
| 1778329554 | 12.78° C | 48% | 974.2 hPa | - | - | - | - |
| 1778329224 | 12.78° C | 47% | 974.1 hPa | - | - | - | - |
| 1778328924 | 12.22° C | 47% | 974.3 hPa | - | - | - | - |
| 1778328624 | 12.22° C | 48% | 974.3 hPa | - | - | - | - |
| 1778328294 | 12.22° C | 48% | 974.3 hPa | - | - | - | - |
| 1778327994 | 12.22° C | 48% | 974.3 hPa | - | - | - | - |
| 1778327664 | 12.22° C | 48% | 974.3 hPa | - | - | - | - |
| 1778327364 | 12.22° C | 48% | 974.3 hPa | - | - | - | - |
| 1778327064 | 12.22° C | 47% | 974.4 hPa | - | - | - | - |
* Rain since midnight (hover to see other rain measurements)
** Current wind speed in m/s (hover to see current wind gust speed)